createdAt,value
2023-02-25T00:00:32.896Z,6.35
2023-02-25T00:01:06.743Z,5.72
2023-02-25T00:01:38.627Z,6.53
2023-02-25T00:02:11.720Z,5.57
2023-02-25T00:02:43.974Z,5.90
2023-02-25T00:03:19.478Z,5.95
2023-02-25T00:03:52.898Z,5.43
2023-02-25T00:04:27.475Z,6.00
2023-02-25T00:05:05.032Z,6.18
2023-02-25T00:05:40.311Z,5.20
2023-02-25T00:06:14.122Z,5.57
2023-02-25T00:06:46.882Z,5.15
2023-02-25T00:07:19.628Z,4.97
2023-02-25T00:07:51.612Z,6.00
2023-02-25T00:08:23.442Z,5.05
2023-02-25T00:08:56.658Z,6.38
2023-02-25T00:09:28.690Z,5.85
2023-02-25T00:10:01.326Z,6.13
2023-02-25T00:10:34.403Z,5.53
2023-02-25T00:11:07.469Z,5.40
2023-02-25T00:11:39.515Z,5.13
2023-02-25T00:12:12.351Z,6.30
2023-02-25T00:12:44.266Z,5.55
2023-02-25T00:13:18.360Z,6.25
2023-02-25T00:13:53.240Z,5.60
2023-02-25T00:14:25.142Z,5.90
2023-02-25T00:14:56.962Z,6.00
2023-02-25T00:15:29.727Z,5.13
2023-02-25T00:16:03.194Z,6.47
2023-02-25T00:16:35.077Z,5.10
2023-02-25T00:17:07.923Z,6.50
2023-02-25T00:17:39.927Z,5.70
2023-02-25T00:18:11.746Z,5.60
2023-02-25T00:18:46.462Z,5.43
2023-02-25T00:19:19.257Z,5.68
2023-02-25T00:19:51.214Z,5.82
2023-02-25T00:20:23.129Z,4.53
2023-02-25T00:20:55.927Z,4.90
2023-02-25T00:21:29.431Z,5.25
2023-02-25T00:22:01.656Z,5.38
2023-02-25T00:22:35.280Z,4.70
2023-02-25T00:23:08.144Z,5.35
2023-02-25T00:23:39.918Z,4.60
2023-02-25T00:24:16.652Z,5.22
2023-02-25T00:24:53.303Z,5.07
2023-02-25T00:25:25.141Z,4.68
2023-02-25T00:25:59.032Z,4.93
2023-02-25T00:26:31.784Z,5.07
2023-02-25T00:27:03.838Z,4.20
2023-02-25T00:27:36.591Z,3.92
2023-02-25T00:28:09.941Z,4.00
2023-02-25T00:28:42.824Z,4.05
2023-02-25T00:29:15.972Z,4.43
2023-02-25T00:29:48.825Z,3.90
2023-02-25T00:30:20.837Z,3.58
2023-02-25T00:30:53.128Z,3.75
2023-02-25T00:31:26.567Z,3.80
2023-02-25T00:31:58.924Z,3.33
2023-02-25T00:32:30.856Z,3.10
2023-02-25T00:33:05.392Z,4.03
2023-02-25T00:33:42.000Z,3.58
2023-02-25T00:34:14.916Z,3.28
2023-02-25T00:34:47.298Z,4.28
2023-02-25T00:35:19.083Z,3.67
2023-02-25T00:35:50.898Z,3.78
2023-02-25T00:36:25.382Z,4.43
2023-02-25T00:36:57.448Z,3.60
2023-02-25T00:37:29.334Z,4.25
2023-02-25T00:38:14.987Z,3.80
2023-02-25T00:38:48.325Z,4.22
2023-02-25T00:39:21.205Z,3.35
2023-02-25T00:39:53.034Z,4.78
2023-02-25T00:40:24.928Z,3.60
2023-02-25T00:40:57.680Z,3.95
2023-02-25T00:41:30.561Z,3.85
2023-02-25T00:42:02.367Z,3.65
2023-02-25T00:42:35.107Z,4.35
2023-02-25T00:43:07.594Z,4.40
2023-02-25T00:43:40.602Z,3.33
2023-02-25T00:44:13.698Z,3.72
2023-02-25T00:44:48.712Z,3.10
2023-02-25T00:45:20.564Z,4.15
2023-02-25T00:45:52.513Z,3.70
2023-02-25T00:46:26.099Z,3.40
2023-02-25T00:46:58.045Z,3.33
2023-02-25T00:47:29.889Z,3.55
2023-02-25T00:48:02.695Z,3.78
2023-02-25T00:48:34.487Z,3.03
2023-02-25T00:49:07.230Z,3.65
2023-02-25T00:49:39.124Z,3.20
2023-02-25T00:50:12.232Z,3.00
2023-02-25T00:50:45.003Z,3.80
2023-02-25T00:51:18.528Z,3.67
2023-02-25T00:51:50.307Z,3.90
2023-02-25T00:52:23.062Z,3.47
2023-02-25T00:52:54.859Z,4.28
2023-02-25T00:53:28.055Z,4.50
2023-02-25T00:54:00.229Z,3.88
2023-02-25T00:54:34.662Z,3.17
2023-02-25T00:55:07.274Z,3.75
2023-02-25T00:55:39.805Z,3.33
2023-02-25T00:56:15.796Z,4.32
2023-02-25T00:56:47.778Z,3.90
2023-02-25T00:57:19.613Z,3.47
2023-02-25T00:57:52.399Z,3.80
2023-02-25T00:58:24.265Z,3.63
2023-02-25T00:58:56.070Z,3.40
2023-02-25T00:59:28.857Z,3.50
2023-02-25T01:00:02.006Z,3.72
2023-02-25T01:00:46.513Z,2.88
2023-02-25T01:01:26.198Z,3.17
2023-02-25T01:01:58.394Z,3.25
2023-02-25T01:02:30.322Z,3.65
2023-02-25T01:03:03.139Z,3.55
2023-02-25T01:03:34.954Z,4.00
2023-02-25T01:04:07.672Z,3.80
2023-02-25T01:04:40.494Z,3.58
2023-02-25T01:05:12.432Z,3.50
2023-02-25T01:05:49.193Z,3.88
2023-02-25T01:06:22.376Z,4.30
2023-02-25T01:06:54.545Z,3.90
2023-02-25T01:07:26.457Z,4.32
2023-02-25T01:07:59.201Z,3.38
2023-02-25T01:08:31.010Z,3.10
2023-02-25T01:09:05.351Z,3.67
2023-02-25T01:09:38.147Z,4.03
2023-02-25T01:10:11.238Z,4.15
2023-02-25T01:10:43.201Z,3.67
2023-02-25T01:11:20.758Z,3.50
2023-02-25T01:11:53.631Z,3.53
2023-02-25T01:12:25.488Z,3.75
2023-02-25T01:12:57.401Z,3.58
2023-02-25T01:13:30.219Z,3.45
2023-02-25T01:14:06.002Z,4.25
2023-02-25T01:14:38.975Z,3.95
2023-02-25T01:15:13.360Z,4.00
2023-02-25T01:15:45.259Z,3.60
2023-02-25T01:16:20.486Z,3.90
2023-02-25T01:16:53.274Z,3.65
2023-02-25T01:17:25.120Z,3.85
2023-02-25T01:17:57.908Z,3.35
2023-02-25T01:18:30.768Z,3.47
2023-02-25T01:19:05.371Z,3.35
2023-02-25T01:19:38.148Z,3.38
2023-02-25T01:20:12.718Z,3.60
2023-02-25T01:20:44.539Z,3.72
2023-02-25T01:21:18.583Z,3.55
2023-02-25T01:21:53.731Z,3.88
2023-02-25T01:22:25.659Z,4.18
2023-02-25T01:22:57.550Z,3.80
2023-02-25T01:23:31.079Z,3.75
2023-02-25T01:24:05.459Z,3.80
2023-02-25T01:24:37.275Z,4.40
2023-02-25T01:25:16.205Z,3.63
2023-02-25T01:25:48.020Z,2.78
2023-02-25T01:26:19.860Z,3.55
2023-02-25T01:26:53.961Z,3.40
2023-02-25T01:27:26.821Z,4.35
2023-02-25T01:27:58.656Z,3.25
2023-02-25T01:28:30.872Z,4.03
2023-02-25T01:29:06.605Z,3.20
2023-02-25T01:29:40.378Z,4.18
2023-02-25T01:30:14.222Z,3.22
2023-02-25T01:30:47.363Z,3.25
2023-02-25T01:31:24.736Z,3.28
2023-02-25T01:31:58.727Z,3.30
2023-02-25T01:32:31.752Z,3.30
2023-02-25T01:33:03.747Z,3.15
2023-02-25T01:33:38.350Z,3.50
2023-02-25T01:34:14.507Z,3.35
2023-02-25T01:34:46.309Z,3.42
2023-02-25T01:35:18.393Z,3.55
2023-02-25T01:35:51.174Z,3.25
2023-02-25T01:36:23.388Z,3.78
2023-02-25T01:36:55.943Z,4.03
2023-02-25T01:37:28.740Z,3.90
2023-02-25T01:38:00.525Z,3.72
2023-02-25T01:38:32.461Z,4.20
2023-02-25T01:39:06.065Z,4.22
2023-02-25T01:39:39.663Z,4.05
2023-02-25T01:40:16.346Z,4.30
2023-02-25T01:40:48.151Z,4.45
2023-02-25T01:41:20.939Z,4.30
2023-02-25T01:41:53.999Z,4.65
2023-02-25T01:42:25.815Z,4.07
2023-02-25T01:42:57.959Z,4.55
2023-02-25T01:43:30.912Z,4.47
2023-02-25T01:44:08.619Z,5.03
2023-02-25T01:45:13.645Z,4.22
2023-02-25T01:45:48.828Z,4.07
2023-02-25T01:46:20.933Z,3.80
2023-02-25T01:46:54.076Z,4.00
2023-02-25T01:47:28.909Z,4.32
2023-02-25T01:48:08.094Z,4.32
2023-02-25T01:48:40.993Z,5.82
2023-02-25T01:49:16.324Z,3.97
2023-02-25T01:49:49.261Z,4.97
2023-02-25T01:50:23.868Z,4.38
2023-02-25T01:50:58.609Z,4.43
2023-02-25T01:51:33.762Z,4.53
2023-02-25T01:52:09.795Z,4.07
2023-02-25T01:52:42.333Z,4.72
2023-02-25T01:53:15.876Z,3.55
2023-02-25T01:53:49.131Z,3.97
2023-02-25T01:54:21.343Z,4.20
2023-02-25T01:54:56.320Z,5.10
2023-02-25T01:55:29.347Z,4.80
2023-02-25T01:56:02.380Z,4.82
2023-02-25T01:56:35.751Z,3.92
2023-02-25T01:57:10.751Z,4.15
2023-02-25T01:57:43.335Z,4.72
2023-02-25T01:58:15.544Z,4.10
2023-02-25T01:58:48.883Z,4.75
2023-02-25T01:59:25.627Z,5.22
2023-02-25T01:59:57.471Z,4.70
2023-02-25T02:00:31.367Z,4.20
2023-02-25T02:01:08.113Z,4.18
2023-02-25T02:01:40.727Z,4.10
2023-02-25T02:02:16.397Z,4.30
2023-02-25T02:02:50.333Z,4.18
2023-02-25T02:03:26.299Z,4.82
2023-02-25T02:03:58.203Z,4.03
2023-02-25T02:04:32.528Z,4.03
2023-02-25T02:05:06.672Z,4.97
2023-02-25T02:05:51.028Z,4.18
2023-02-25T02:06:28.305Z,3.55
2023-02-25T02:07:00.613Z,3.90
2023-02-25T02:07:32.619Z,4.55
2023-02-25T02:08:05.553Z,4.60
2023-02-25T02:08:38.388Z,4.10
2023-02-25T02:09:13.334Z,4.68
2023-02-25T02:09:55.780Z,4.10
2023-02-25T02:10:28.569Z,4.50
2023-02-25T02:11:01.656Z,3.55
2023-02-25T02:11:33.987Z,3.72
2023-02-25T02:12:08.354Z,4.30
2023-02-25T02:12:43.923Z,4.45
2023-02-25T02:13:16.349Z,4.05
2023-02-25T02:13:53.018Z,4.43
2023-02-25T02:14:27.537Z,3.88
2023-02-25T02:15:02.268Z,4.65
2023-02-25T02:15:41.009Z,4.88
2023-02-25T02:16:26.578Z,3.80
2023-02-25T02:17:12.375Z,5.10
2023-02-25T02:17:49.496Z,4.97
2023-02-25T02:18:21.871Z,4.78
2023-02-25T02:18:58.310Z,4.47
2023-02-25T02:19:39.808Z,5.05
2023-02-25T02:20:20.395Z,4.68
2023-02-25T02:21:04.830Z,4.90
2023-02-25T02:21:54.611Z,4.78
2023-02-25T02:22:35.236Z,5.05
2023-02-25T02:23:26.952Z,4.13
2023-02-25T02:24:26.309Z,4.93
2023-02-25T02:25:32.514Z,4.55
2023-02-25T02:26:45.984Z,3.20
2023-02-25T02:27:25.561Z,3.30
2023-02-25T02:28:32.484Z,3.13
2023-02-25T02:29:26.327Z,3.60
2023-02-25T02:30:31.533Z,3.55
2023-02-25T02:31:20.867Z,3.90
2023-02-25T02:32:03.650Z,3.13
2023-02-25T02:32:40.466Z,2.88
2023-02-25T02:33:22.277Z,3.30
2023-02-25T02:34:03.638Z,3.88
2023-02-25T02:34:46.832Z,2.60
2023-02-25T02:35:23.691Z,3.55
2023-02-25T02:36:02.112Z,2.90
2023-02-25T02:36:48.025Z,3.40
2023-02-25T02:37:29.375Z,3.17
2023-02-25T02:38:12.694Z,3.28
2023-02-25T02:38:50.909Z,2.90
2023-02-25T02:39:27.287Z,4.13
2023-02-25T02:40:15.192Z,2.92
2023-02-25T02:40:54.731Z,3.05
2023-02-25T02:41:35.555Z,2.50
2023-02-25T02:42:13.130Z,2.85
2023-02-25T02:42:56.489Z,3.45
2023-02-25T02:43:39.516Z,3.38
2023-02-25T02:44:16.941Z,2.80
2023-02-25T02:44:57.340Z,2.80
2023-02-25T02:45:35.356Z,2.65
2023-02-25T02:46:13.759Z,2.85
2023-02-25T02:46:52.332Z,2.60
2023-02-25T02:47:28.227Z,3.10
2023-02-25T02:48:03.600Z,2.53
2023-02-25T02:48:42.422Z,3.53
2023-02-25T02:49:21.023Z,3.08
2023-02-25T02:49:57.195Z,2.80
2023-02-25T02:50:34.923Z,2.95
2023-02-25T02:51:10.987Z,2.22
2023-02-25T02:51:49.714Z,2.83
2023-02-25T02:52:25.944Z,2.40
2023-02-25T02:53:01.448Z,2.90
2023-02-25T02:53:37.820Z,2.58
2023-02-25T02:54:14.510Z,2.97
2023-02-25T02:54:53.260Z,2.90
2023-02-25T02:55:30.342Z,2.28
2023-02-25T02:56:08.312Z,3.25
2023-02-25T02:56:43.292Z,2.90
2023-02-25T02:57:17.028Z,2.40
2023-02-25T02:57:52.493Z,2.80
2023-02-25T02:58:30.360Z,2.55
2023-02-25T02:59:05.879Z,2.97
2023-02-25T02:59:42.825Z,2.95
2023-02-25T03:00:19.583Z,2.47
2023-02-25T03:00:58.059Z,2.75
2023-02-25T03:01:32.723Z,2.85
2023-02-25T03:02:13.223Z,2.70
2023-02-25T03:02:49.468Z,3.15
2023-02-25T03:03:36.464Z,2.53
2023-02-25T03:04:14.125Z,2.90
2023-02-25T03:04:50.095Z,2.80
2023-02-25T03:05:24.160Z,2.53
2023-02-25T03:05:55.967Z,2.75
2023-02-25T03:06:32.346Z,3.22
2023-02-25T03:07:06.955Z,2.45
2023-02-25T03:07:53.458Z,2.97
2023-02-25T03:08:29.555Z,2.63
2023-02-25T03:09:08.060Z,2.70
2023-02-25T03:09:43.216Z,2.50
2023-02-25T03:10:21.398Z,2.78
2023-02-25T03:10:53.227Z,2.53
2023-02-25T03:11:25.137Z,2.22
2023-02-25T03:11:58.183Z,2.40
2023-02-25T03:12:30.063Z,1.77
2023-02-25T03:13:01.946Z,2.28
2023-02-25T03:13:34.754Z,1.98
2023-02-25T03:14:08.963Z,3.28
2023-02-25T03:14:41.317Z,2.60
2023-02-25T03:15:14.786Z,2.55
2023-02-25T03:15:48.532Z,3.17
2023-02-25T03:16:27.118Z,2.40
2023-02-25T03:17:05.397Z,2.15
2023-02-25T03:17:42.799Z,2.60
2023-02-25T03:18:22.655Z,2.40
2023-02-25T03:18:59.035Z,2.25
2023-02-25T03:19:35.938Z,3.40
2023-02-25T03:20:14.347Z,2.75
2023-02-25T03:20:49.422Z,2.40
2023-02-25T03:21:26.647Z,3.30
2023-02-25T03:22:05.388Z,2.38
2023-02-25T03:22:39.517Z,2.25
2023-02-25T03:23:16.875Z,2.17
2023-02-25T03:23:50.734Z,2.17
2023-02-25T03:24:29.355Z,2.15
2023-02-25T03:25:05.714Z,2.55
2023-02-25T03:25:47.437Z,2.20
2023-02-25T03:26:25.856Z,2.50
2023-02-25T03:26:57.680Z,3.13
2023-02-25T03:27:34.735Z,1.90
2023-02-25T03:28:26.021Z,2.20
2023-02-25T03:28:59.438Z,1.80
2023-02-25T03:29:31.358Z,2.00
2023-02-25T03:30:12.472Z,2.30
2023-02-25T03:30:49.377Z,2.00
2023-02-25T03:31:26.995Z,2.17
2023-02-25T03:32:04.805Z,2.00
2023-02-25T03:32:42.130Z,1.58
2023-02-25T03:33:18.605Z,2.10
2023-02-25T03:33:54.624Z,2.00
2023-02-25T03:34:31.470Z,2.58
2023-02-25T03:35:06.703Z,2.00
2023-02-25T03:35:40.236Z,1.70
2023-02-25T03:36:17.144Z,1.90
2023-02-25T03:36:55.307Z,1.90
2023-02-25T03:37:31.467Z,1.98
2023-02-25T03:38:09.081Z,1.98
2023-02-25T03:38:45.346Z,2.00
2023-02-25T03:39:20.422Z,2.35
2023-02-25T03:39:57.154Z,1.90
2023-02-25T03:40:31.094Z,1.88
2023-02-25T03:41:07.093Z,1.60
2023-02-25T03:41:44.579Z,1.70
2023-02-25T03:42:21.132Z,1.42
2023-02-25T03:42:58.128Z,1.60
2023-02-25T03:43:34.647Z,1.85
2023-02-25T03:44:12.545Z,2.22
2023-02-25T03:44:49.658Z,1.50
2023-02-25T03:45:23.743Z,1.70
2023-02-25T03:45:56.705Z,1.70
2023-02-25T03:46:30.508Z,2.00
2023-02-25T03:47:05.768Z,1.75
2023-02-25T03:47:40.394Z,1.65
2023-02-25T03:48:14.922Z,1.48
2023-02-25T03:48:49.489Z,1.55
2023-02-25T03:49:24.784Z,1.75
2023-02-25T03:50:00.867Z,1.70
2023-02-25T03:50:36.654Z,2.47
2023-02-25T03:51:09.686Z,1.55
2023-02-25T03:51:44.664Z,1.88
2023-02-25T03:52:21.912Z,2.15
2023-02-25T03:52:53.776Z,1.77
2023-02-25T03:53:25.792Z,1.90
2023-02-25T03:53:58.675Z,1.58
2023-02-25T03:54:30.468Z,1.85
2023-02-25T03:55:03.610Z,1.50
2023-02-25T03:55:35.500Z,2.20
2023-02-25T03:56:10.681Z,1.75
2023-02-25T03:56:44.970Z,1.85
2023-02-25T03:57:17.024Z,1.23
2023-02-25T03:57:51.924Z,2.08
2023-02-25T03:58:24.744Z,1.80
2023-02-25T03:58:56.564Z,1.80
2023-02-25T03:59:29.339Z,1.80
2023-02-25T04:00:01.498Z,1.60
2023-02-25T04:00:34.637Z,1.52
2023-02-25T04:01:11.920Z,1.67
2023-02-25T04:01:46.852Z,2.88
2023-02-25T04:02:20.389Z,1.63
2023-02-25T04:02:55.087Z,2.05
2023-02-25T04:03:26.871Z,1.60
2023-02-25T04:03:58.673Z,1.77
2023-02-25T04:04:31.629Z,1.65
2023-02-25T04:05:04.033Z,2.05
2023-02-25T04:05:37.434Z,1.70
2023-02-25T04:06:12.345Z,2.05
2023-02-25T04:06:44.146Z,1.83
2023-02-25T04:07:16.031Z,1.55
2023-02-25T04:07:49.474Z,1.73
2023-02-25T04:08:21.301Z,1.85
2023-02-25T04:08:53.296Z,2.60
2023-02-25T04:09:26.229Z,1.55
2023-02-25T04:09:58.242Z,1.75
2023-02-25T04:10:30.138Z,1.60
2023-02-25T04:11:02.894Z,1.95
2023-02-25T04:11:35.258Z,2.20
2023-02-25T04:12:08.036Z,2.05
2023-02-25T04:12:41.532Z,1.60
2023-02-25T04:13:15.057Z,2.28
2023-02-25T04:13:46.883Z,1.80
2023-02-25T04:14:19.824Z,2.35
2023-02-25T04:14:51.637Z,1.90
2023-02-25T04:15:23.603Z,2.33
2023-02-25T04:15:55.537Z,2.90
2023-02-25T04:16:28.367Z,2.75
2023-02-25T04:17:00.299Z,1.98
2023-02-25T04:17:32.215Z,2.25
2023-02-25T04:18:06.774Z,2.53
2023-02-25T04:18:38.624Z,1.80
2023-02-25T04:19:10.416Z,2.05
2023-02-25T04:19:43.176Z,2.40
2023-02-25T04:20:16.143Z,2.13
2023-02-25T04:20:48.274Z,2.17
2023-02-25T04:21:30.408Z,1.67
2023-02-25T04:22:02.225Z,2.40
2023-02-25T04:22:34.477Z,2.13
2023-02-25T04:23:08.045Z,2.35
2023-02-25T04:23:39.822Z,2.40
2023-02-25T04:24:11.663Z,3.00
2023-02-25T04:24:43.511Z,2.22
2023-02-25T04:25:16.260Z,2.50
2023-02-25T04:25:48.428Z,2.25
2023-02-25T04:26:20.425Z,2.50
2023-02-25T04:26:58.201Z,2.22
2023-02-25T04:27:31.969Z,2.60
2023-02-25T04:28:04.303Z,2.42
2023-02-25T04:28:37.065Z,2.55
2023-02-25T04:29:08.994Z,2.15
2023-02-25T04:29:40.784Z,2.42
2023-02-25T04:30:14.760Z,2.15
2023-02-25T04:30:46.745Z,2.47
2023-02-25T04:31:18.874Z,2.60
2023-02-25T04:31:52.090Z,2.60
2023-02-25T04:32:24.535Z,2.80
2023-02-25T04:32:56.415Z,2.90
2023-02-25T04:33:30.550Z,2.72
2023-02-25T04:34:02.375Z,2.92
2023-02-25T04:34:34.193Z,2.85
2023-02-25T04:35:09.778Z,3.25
2023-02-25T04:35:42.540Z,3.53
2023-02-25T04:36:23.582Z,3.08
2023-02-25T04:36:55.702Z,3.83
2023-02-25T04:37:29.013Z,3.13
2023-02-25T04:38:00.793Z,2.92
2023-02-25T04:38:32.572Z,3.63
2023-02-25T04:39:06.613Z,2.90
2023-02-25T04:39:38.451Z,3.63
2023-02-25T04:40:14.231Z,3.28
2023-02-25T04:40:47.008Z,3.30
2023-02-25T04:41:18.796Z,3.10
2023-02-25T04:41:50.633Z,3.42
2023-02-25T04:42:23.485Z,3.67
2023-02-25T04:42:55.343Z,3.90
2023-02-25T04:43:27.119Z,4.00
2023-02-25T04:44:00.217Z,3.67
2023-02-25T04:44:32.056Z,4.13
2023-02-25T04:45:04.497Z,4.15
2023-02-25T04:45:37.260Z,3.35
2023-02-25T04:46:09.282Z,3.80
2023-02-25T04:46:42.539Z,3.50
2023-02-25T04:47:15.587Z,3.55
2023-02-25T04:47:47.392Z,3.38
2023-02-25T04:48:24.017Z,3.35
2023-02-25T04:48:58.383Z,3.55
2023-02-25T04:49:30.232Z,3.40
2023-02-25T04:50:02.138Z,3.88
2023-02-25T04:50:34.907Z,3.78
2023-02-25T04:51:08.125Z,3.28
2023-02-25T04:51:39.968Z,3.35
2023-02-25T04:52:13.458Z,3.50
2023-02-25T04:52:45.267Z,3.95
2023-02-25T04:53:17.076Z,3.40
2023-02-25T04:53:49.835Z,3.60
2023-02-25T04:54:22.037Z,3.45
2023-02-25T04:54:53.863Z,4.00
2023-02-25T04:55:26.655Z,3.75
2023-02-25T04:56:03.063Z,4.95
2023-02-25T04:56:36.031Z,3.90
2023-02-25T04:57:09.639Z,4.00
2023-02-25T04:57:42.614Z,4.25
2023-02-25T04:58:15.411Z,4.57
2023-02-25T04:58:47.254Z,3.92
2023-02-25T04:59:19.092Z,3.63
2023-02-25T04:59:51.838Z,4.10
2023-02-25T05:00:24.496Z,3.70
2023-02-25T05:00:57.849Z,3.90
2023-02-25T05:01:31.535Z,3.95
2023-02-25T05:02:03.690Z,4.70
2023-02-25T05:02:35.564Z,4.50
2023-02-25T05:03:08.320Z,4.78
2023-02-25T05:03:40.515Z,3.80
2023-02-25T05:04:13.702Z,3.80
2023-02-25T05:04:46.707Z,4.70
2023-02-25T05:05:19.234Z,4.18
2023-02-25T05:05:51.032Z,4.30
2023-02-25T05:06:24.783Z,3.95
2023-02-25T05:06:56.693Z,4.00
2023-02-25T05:07:28.516Z,4.00
2023-02-25T05:08:01.326Z,4.25
2023-02-25T05:08:33.771Z,4.32
2023-02-25T05:09:05.836Z,4.28
2023-02-25T05:09:38.597Z,3.65
2023-02-25T05:10:13.038Z,4.68
2023-02-25T05:10:44.899Z,4.10
2023-02-25T05:11:18.300Z,4.15
2023-02-25T05:11:50.124Z,4.70
2023-02-25T05:12:22.208Z,4.28
2023-02-25T05:12:54.981Z,4.03
2023-02-25T05:13:27.576Z,4.80
2023-02-25T05:13:59.548Z,4.45
2023-02-25T05:14:32.938Z,4.63
2023-02-25T05:15:08.460Z,4.38
2023-02-25T05:15:40.459Z,4.80
2023-02-25T05:16:16.469Z,5.95
2023-02-25T05:16:49.470Z,5.03
2023-02-25T05:17:21.275Z,4.85
2023-02-25T05:17:53.089Z,4.90
2023-02-25T05:18:25.846Z,4.88
2023-02-25T05:18:58.025Z,5.55
2023-02-25T05:19:32.536Z,5.00
2023-02-25T05:20:07.671Z,5.55
2023-02-25T05:20:41.179Z,5.38
2023-02-25T05:21:15.504Z,4.78
2023-02-25T05:21:48.269Z,6.20
2023-02-25T05:22:22.078Z,4.90
2023-02-25T05:22:53.883Z,5.55
2023-02-25T05:23:26.619Z,6.00
2023-02-25T05:23:58.505Z,5.15
2023-02-25T05:24:30.291Z,6.10
2023-02-25T05:25:03.060Z,5.75
2023-02-25T05:25:34.889Z,6.70
2023-02-25T05:26:07.077Z,5.25
2023-02-25T05:26:40.567Z,5.40
2023-02-25T05:27:12.420Z,5.75
2023-02-25T05:27:44.206Z,6.13
2023-02-25T05:28:17.027Z,7.15
2023-02-25T05:28:50.242Z,5.70
2023-02-25T05:29:22.088Z,5.90
2023-02-25T05:29:55.897Z,6.70
2023-02-25T05:30:27.823Z,6.10
2023-02-25T05:30:59.734Z,5.90
2023-02-25T05:31:32.712Z,5.85
2023-02-25T05:32:05.456Z,6.50
2023-02-25T05:32:38.636Z,6.25
2023-02-25T05:33:13.493Z,6.70
2023-02-25T05:33:45.332Z,6.55
2023-02-25T05:34:17.631Z,5.90
2023-02-25T05:34:51.731Z,6.55
2023-02-25T05:35:23.715Z,7.18
2023-02-25T05:35:55.538Z,7.03
2023-02-25T05:36:29.463Z,7.05
2023-02-25T05:37:01.501Z,6.60
2023-02-25T05:37:33.327Z,6.25
2023-02-25T05:38:07.359Z,6.75
2023-02-25T05:38:39.968Z,7.05
2023-02-25T05:39:14.502Z,7.57
2023-02-25T05:39:46.299Z,7.50
2023-02-25T05:40:19.638Z,5.90
2023-02-25T05:40:51.500Z,6.10
2023-02-25T05:41:23.370Z,6.22
2023-02-25T05:41:56.139Z,6.28
2023-02-25T05:42:28.030Z,7.35
2023-02-25T05:43:00.550Z,7.53
2023-02-25T05:43:33.555Z,6.88
2023-02-25T05:44:05.557Z,7.13
2023-02-25T05:44:37.387Z,6.43
2023-02-25T05:45:11.222Z,6.93
2023-02-25T05:45:43.155Z,6.65
2023-02-25T05:46:15.978Z,7.47
2023-02-25T05:46:48.909Z,6.25
2023-02-25T05:47:20.896Z,6.60
2023-02-25T05:47:52.853Z,6.60
2023-02-25T05:48:25.711Z,6.50
2023-02-25T05:48:57.539Z,6.55
2023-02-25T05:49:29.551Z,7.88
2023-02-25T05:50:02.771Z,7.15
2023-02-25T05:50:41.152Z,8.15
2023-02-25T05:51:15.726Z,7.28
2023-02-25T05:51:49.192Z,6.75
2023-02-25T05:52:21.957Z,6.20
2023-02-25T05:52:53.807Z,6.25
2023-02-25T05:53:25.679Z,6.95
2023-02-25T05:53:58.496Z,6.80
2023-02-25T05:54:30.331Z,6.80
2023-02-25T05:55:02.502Z,6.80
2023-02-25T05:55:35.244Z,7.45
2023-02-25T05:56:10.816Z,5.90
2023-02-25T05:56:44.270Z,6.35
2023-02-25T05:57:17.192Z,7.30
2023-02-25T05:57:48.968Z,6.78
2023-02-25T05:58:20.965Z,6.45
2023-02-25T05:58:54.141Z,6.05
2023-02-25T05:59:25.992Z,7.40
2023-02-25T05:59:57.822Z,6.03
2023-02-25T06:00:30.604Z,6.20
2023-02-25T06:01:10.365Z,6.60
2023-02-25T06:01:42.269Z,7.15
2023-02-25T06:02:15.148Z,6.18
2023-02-25T06:02:47.232Z,6.90
2023-02-25T06:03:19.110Z,7.50
2023-02-25T06:03:52.621Z,6.47
2023-02-25T06:04:24.479Z,7.10
2023-02-25T06:04:56.429Z,6.32
2023-02-25T06:05:30.268Z,7.00
2023-02-25T06:06:03.082Z,6.35
2023-02-25T06:06:34.989Z,6.68
2023-02-25T06:07:07.074Z,6.25
2023-02-25T06:07:39.938Z,6.63
2023-02-25T06:08:12.321Z,7.63
2023-02-25T06:08:44.812Z,7.50
2023-02-25T06:09:19.566Z,6.40
2023-02-25T06:09:51.346Z,7.18
2023-02-25T06:10:23.293Z,6.53
2023-02-25T06:10:56.341Z,7.88
2023-02-25T06:11:30.067Z,6.78
2023-02-25T06:12:01.965Z,7.63
2023-02-25T06:12:36.629Z,7.90
2023-02-25T06:13:09.882Z,7.47
2023-02-25T06:13:41.868Z,7.07
2023-02-25T06:14:15.076Z,6.60
2023-02-25T06:14:46.894Z,7.00
2023-02-25T06:15:19.447Z,7.38
2023-02-25T06:15:52.225Z,8.48
2023-02-25T06:16:25.726Z,7.28
2023-02-25T06:16:57.955Z,6.97
2023-02-25T06:17:30.805Z,6.43
2023-02-25T06:18:02.642Z,7.32
2023-02-25T06:18:38.320Z,6.95
2023-02-25T06:19:12.585Z,8.63
2023-02-25T06:19:44.611Z,6.93
2023-02-25T06:20:17.408Z,6.68
2023-02-25T06:20:50.809Z,6.40
2023-02-25T06:21:23.555Z,7.68
2023-02-25T06:21:56.201Z,7.22
2023-02-25T06:22:28.293Z,6.97
2023-02-25T06:23:01.057Z,6.95
2023-02-25T06:23:33.067Z,7.57
2023-02-25T06:24:07.331Z,8.40
2023-02-25T06:24:40.632Z,7.10
2023-02-25T06:25:12.506Z,7.70
2023-02-25T06:25:45.312Z,7.30
2023-02-25T06:26:17.952Z,6.95
2023-02-25T06:26:50.171Z,6.55
2023-02-25T06:27:22.345Z,6.57
2023-02-25T06:27:55.107Z,6.97
2023-02-25T06:28:27.048Z,6.03
2023-02-25T06:28:59.553Z,7.30
2023-02-25T06:29:32.332Z,6.90
2023-02-25T06:30:04.880Z,7.75
2023-02-25T06:30:36.938Z,7.78
2023-02-25T06:31:11.144Z,6.93
2023-02-25T06:31:43.325Z,6.47
2023-02-25T06:32:15.625Z,6.15
2023-02-25T06:32:48.524Z,6.90
2023-02-25T06:33:20.429Z,6.90
2023-02-25T06:33:54.804Z,6.47
2023-02-25T06:34:32.461Z,7.53
2023-02-25T06:35:06.413Z,6.35
2023-02-25T06:35:38.282Z,7.63
2023-02-25T06:36:12.750Z,5.88
2023-02-25T06:36:44.567Z,6.82
2023-02-25T06:37:16.532Z,6.68
2023-02-25T06:37:49.555Z,7.15
2023-02-25T06:38:22.049Z,6.15
2023-02-25T06:38:53.975Z,7.50
2023-02-25T06:39:26.728Z,6.40
2023-02-25T06:39:58.853Z,7.38
2023-02-25T06:40:32.974Z,7.07
2023-02-25T06:41:10.083Z,6.90
2023-02-25T06:41:41.898Z,6.25
2023-02-25T06:42:13.734Z,6.63
2023-02-25T06:42:46.563Z,7.25
2023-02-25T06:43:18.386Z,6.80
2023-02-25T06:43:51.986Z,7.00
2023-02-25T06:44:24.985Z,7.22
2023-02-25T06:44:56.882Z,6.25
2023-02-25T06:45:28.899Z,6.65
2023-02-25T06:46:06.073Z,7.28
2023-02-25T06:46:37.992Z,6.65
2023-02-25T06:47:09.861Z,7.35
2023-02-25T06:47:42.911Z,6.97
2023-02-25T06:48:14.723Z,5.95
2023-02-25T06:48:46.658Z,7.18
2023-02-25T06:49:20.142Z,8.00
2023-02-25T06:49:51.926Z,7.18
2023-02-25T06:50:23.734Z,6.13
2023-02-25T06:50:56.493Z,6.65
2023-02-25T06:51:29.641Z,6.55
2023-02-25T06:52:01.545Z,6.75
2023-02-25T06:52:35.218Z,7.75
2023-02-25T06:53:07.372Z,7.28
2023-02-25T06:53:40.986Z,6.95
2023-02-25T06:54:13.731Z,6.82
2023-02-25T06:54:45.550Z,7.10
2023-02-25T06:55:17.504Z,8.00
2023-02-25T06:55:50.256Z,7.85
2023-02-25T06:56:22.731Z,7.47
2023-02-25T06:56:55.679Z,7.15
2023-02-25T06:57:28.460Z,7.35
2023-02-25T06:58:00.325Z,7.50
2023-02-25T06:58:32.697Z,6.85
2023-02-25T06:59:05.509Z,7.28
2023-02-25T06:59:37.414Z,7.95
2023-02-25T07:00:10.371Z,7.05
2023-02-25T07:00:43.249Z,8.30
2023-02-25T07:01:16.922Z,7.13
2023-02-25T07:01:48.762Z,7.47
2023-02-25T07:02:21.599Z,6.45
2023-02-25T07:02:53.458Z,6.97
2023-02-25T07:03:25.619Z,7.25
2023-02-25T07:03:58.372Z,7.63
2023-02-25T07:04:30.210Z,6.45
2023-02-25T07:05:02.852Z,6.70
2023-02-25T07:05:35.624Z,7.95
2023-02-25T07:06:08.824Z,6.85
2023-02-25T07:06:42.036Z,7.50
2023-02-25T07:07:14.791Z,7.70
2023-02-25T07:07:46.608Z,7.93
2023-02-25T07:08:18.449Z,7.90
2023-02-25T07:08:51.333Z,6.22
2023-02-25T07:09:23.262Z,6.53
2023-02-25T07:09:55.127Z,6.82
2023-02-25T07:10:27.957Z,6.70
2023-02-25T07:11:11.620Z,6.45
2023-02-25T07:11:45.227Z,6.80
2023-02-25T07:12:17.012Z,7.15
2023-02-25T07:12:48.855Z,6.45
2023-02-25T07:13:21.692Z,7.90
2023-02-25T07:13:53.659Z,7.32
2023-02-25T07:14:26.576Z,7.30
2023-02-25T07:14:58.760Z,7.15
2023-02-25T07:15:30.587Z,7.47
2023-02-25T07:16:03.404Z,6.43
2023-02-25T07:16:35.498Z,7.25
2023-02-25T07:17:08.293Z,7.32
2023-02-25T07:17:40.113Z,7.30
2023-02-25T07:18:12.038Z,8.82
2023-02-25T07:18:45.664Z,8.05
2023-02-25T07:19:17.489Z,6.72
2023-02-25T07:19:49.404Z,7.43
2023-02-25T07:20:22.207Z,7.10
2023-02-25T07:20:54.071Z,7.13
2023-02-25T07:21:29.228Z,7.25
2023-02-25T07:22:03.383Z,6.90
2023-02-25T07:22:35.393Z,7.75
2023-02-25T07:23:07.192Z,6.65
2023-02-25T07:23:40.131Z,8.07
2023-02-25T07:24:12.964Z,6.80
2023-02-25T07:24:45.552Z,7.10
2023-02-25T07:25:18.981Z,6.85
2023-02-25T07:25:50.818Z,6.70
2023-02-25T07:26:23.028Z,8.45
2023-02-25T07:26:56.386Z,7.57
2023-02-25T07:27:28.227Z,6.90
2023-02-25T07:28:00.042Z,7.90
2023-02-25T07:28:33.280Z,6.47
2023-02-25T07:29:06.412Z,6.60
2023-02-25T07:29:38.430Z,7.25
2023-02-25T07:30:13.815Z,7.07
2023-02-25T07:30:45.973Z,6.90
2023-02-25T07:31:21.722Z,7.10
2023-02-25T07:31:54.950Z,7.60
2023-02-25T07:32:27.121Z,6.70
2023-02-25T07:32:59.124Z,7.20
2023-02-25T07:33:31.647Z,6.55
2023-02-25T07:34:04.467Z,7.97
2023-02-25T07:34:37.912Z,6.60
2023-02-25T07:35:11.386Z,7.18